Bristol, Tennessee
Current Conditions -  °F | °C
As of 3:15 PM on Saturday 25 Oct 2014 (Local Time) from KVJI Reporting Station
Clear Clear  
Wind Chill: 19°   Ceiling: Unl
Heat Index: 19°   Visibility: 10mi
Dew Point:   Wind: 8mph
Humidity: 54%   Direction: 240°WSW
Pressure: 30.02"   Gusts: NA
Location:  36.59°N, 82.22°W
Report Text: KVJI 251915Z AUTO 24007KT 10SM CLR 19/09 A3002 RMK AO2 T01850090
Loading
Personal Weather Stations






























Interactive Weather Map New forecast layout! Learn more

10-Day Weather Forecast

Advertisements
Track Severe Weather on mobile